createdAt,value
2017-06-14T00:00:06.773Z,12.2
2017-06-14T00:01:14.094Z,12.2
2017-06-14T00:02:21.572Z,12.2
2017-06-14T00:03:29.073Z,12.1
2017-06-14T00:04:36.558Z,12.1
2017-06-14T00:05:44.040Z,12.1
2017-06-14T00:06:51.678Z,12.1
2017-06-14T00:07:59.163Z,12.1
2017-06-14T00:09:06.649Z,12.1
2017-06-14T00:10:14.145Z,12.1
2017-06-14T00:11:21.296Z,12.1
2017-06-14T00:12:28.754Z,12.1
2017-06-14T00:13:36.236Z,12.1
2017-06-14T00:14:43.716Z,12.1
2017-06-14T00:15:50.875Z,12.1
2017-06-14T00:16:58.353Z,12.1
2017-06-14T00:18:05.983Z,12
2017-06-14T00:19:13.461Z,12.1
2017-06-14T00:20:20.620Z,12.1
2017-06-14T00:21:28.106Z,12.1
2017-06-14T00:22:35.591Z,12.1
2017-06-14T00:23:43.227Z,12.2
2017-06-14T00:24:50.711Z,12.1
2017-06-14T00:25:58.193Z,12.1
2017-06-14T00:27:05.675Z,12.1
2017-06-14T00:28:13.161Z,12.1
2017-06-14T00:29:20.837Z,12.1
2017-06-14T00:30:28.320Z,12.1
2017-06-14T00:31:35.468Z,12.1
2017-06-14T00:32:42.953Z,12.1
2017-06-14T00:33:50.438Z,12.1
2017-06-14T00:34:58.081Z,12.1
2017-06-14T00:36:05.562Z,12.1
2017-06-14T00:37:13.054Z,12.1
2017-06-14T00:38:20.556Z,12
2017-06-14T00:39:28.042Z,12
2017-06-14T00:40:35.677Z,12
2017-06-14T00:41:43.166Z,12
2017-06-14T00:42:50.649Z,12
2017-06-14T00:43:58.131Z,12
2017-06-14T00:45:05.614Z,12
2017-06-14T00:46:13.063Z,11.9
2017-06-14T00:47:20.547Z,11.9
2017-06-14T00:48:28.032Z,11.9
2017-06-14T00:49:35.523Z,11.9
2017-06-14T00:50:43.015Z,11.9
2017-06-14T00:51:50.330Z,11.8
2017-06-14T00:52:57.811Z,11.9
2017-06-14T00:54:04.965Z,11.9
2017-06-14T00:55:12.450Z,11.9
2017-06-14T00:56:19.614Z,11.8
2017-06-14T00:57:27.245Z,11.8
2017-06-14T00:58:34.737Z,11.8
2017-06-14T00:59:42.217Z,11.8
2017-06-14T01:00:49.696Z,11.8
2017-06-14T01:01:57.184Z,11.8
2017-06-14T01:03:04.819Z,11.8
2017-06-14T01:04:12.300Z,11.8
2017-06-14T01:05:19.783Z,11.8
2017-06-14T01:06:26.934Z,11.8
2017-06-14T01:07:34.417Z,11.8
2017-06-14T01:08:42.050Z,11.8
2017-06-14T01:09:49.553Z,11.8
2017-06-14T01:10:57.037Z,11.8
2017-06-14T01:12:04.519Z,11.8
2017-06-14T01:13:12.001Z,11.8
2017-06-14T01:14:19.639Z,11.8
2017-06-14T01:15:27.129Z,11.7
2017-06-14T01:16:34.606Z,11.7
2017-06-14T01:17:42.093Z,11.7
2017-06-14T01:18:49.572Z,11.7
2017-06-14T01:19:57.209Z,11.7
2017-06-14T01:21:04.698Z,11.6
2017-06-14T01:22:12.188Z,11.6
2017-06-14T01:23:19.676Z,11.6
2017-06-14T01:24:27.157Z,11.6
2017-06-14T01:25:34.797Z,11.6
2017-06-14T01:26:42.281Z,11.6
2017-06-14T01:27:49.765Z,11.6
2017-06-14T01:28:57.250Z,11.6
2017-06-14T01:30:04.419Z,11.5
2017-06-14T01:31:12.054Z,11.5
2017-06-14T01:32:19.540Z,11.5
2017-06-14T01:33:27.029Z,11.5
2017-06-14T01:34:34.516Z,11.5
2017-06-14T01:35:41.999Z,11.5
2017-06-14T01:36:49.685Z,11.5
2017-06-14T01:37:56.839Z,11.4
2017-06-14T01:39:04.330Z,11.4
2017-06-14T01:40:11.815Z,11.4
2017-06-14T01:41:18.965Z,11.4
2017-06-14T01:42:26.598Z,11.4
2017-06-14T01:43:34.076Z,11.3
2017-06-14T01:44:41.555Z,11.3
2017-06-14T01:45:49.046Z,11.3
2017-06-14T01:46:56.528Z,11.2
2017-06-14T01:48:04.168Z,11.2
2017-06-14T01:49:11.644Z,11.2
2017-06-14T01:50:19.133Z,11.1
2017-06-14T01:51:26.619Z,11.1
2017-06-14T01:52:34.109Z,11.1
2017-06-14T01:53:41.766Z,11
2017-06-14T01:54:49.247Z,11
2017-06-14T01:55:56.735Z,11
2017-06-14T01:57:04.228Z,11
2017-06-14T01:58:11.383Z,11
2017-06-14T01:59:19.020Z,10.9
2017-06-14T02:00:26.507Z,10.9
2017-06-14T02:01:33.996Z,10.9
2017-06-14T02:02:41.478Z,10.9
2017-06-14T02:03:48.961Z,10.9
2017-06-14T02:04:56.613Z,10.8
2017-06-14T02:06:04.100Z,10.8
2017-06-14T02:07:11.585Z,10.8
2017-06-14T02:08:19.073Z,10.8
2017-06-14T02:09:26.564Z,10.8
2017-06-14T02:10:34.206Z,10.8
2017-06-14T02:11:41.363Z,10.7
2017-06-14T02:12:48.849Z,10.7
2017-06-14T02:13:56.329Z,10.7
2017-06-14T02:15:03.489Z,10.7
2017-06-14T02:16:10.844Z,10.7
2017-06-14T02:17:18.329Z,10.7
2017-06-14T02:18:25.812Z,10.7
2017-06-14T02:19:33.294Z,10.7
2017-06-14T02:20:40.449Z,10.7
2017-06-14T02:21:48.085Z,10.6
2017-06-14T02:22:55.236Z,10.6
2017-06-14T02:24:02.397Z,10.7
2017-06-14T02:25:09.883Z,10.6
2017-06-14T02:26:17.369Z,10.6
2017-06-14T02:27:25.061Z,10.6
2017-06-14T02:28:32.548Z,10.6
2017-06-14T02:29:40.037Z,10.6
2017-06-14T02:30:47.519Z,10.6
2017-06-14T02:31:55.008Z,10.6
2017-06-14T02:33:02.647Z,10.6
2017-06-14T02:34:10.139Z,10.6
2017-06-14T02:35:17.639Z,10.6
2017-06-14T02:36:25.128Z,10.5
2017-06-14T02:37:32.287Z,10.5
2017-06-14T02:38:39.595Z,10.5
2017-06-14T02:39:47.073Z,10.5
2017-06-14T02:40:54.223Z,10.5
2017-06-14T02:42:01.380Z,10.5
2017-06-14T02:43:08.871Z,10.5
2017-06-14T02:44:15.841Z,10.5
2017-06-14T02:45:22.988Z,10.5
2017-06-14T02:46:30.478Z,10.5
2017-06-14T02:47:37.639Z,10.4
2017-06-14T02:48:45.132Z,10.5
2017-06-14T02:49:52.765Z,10.5
2017-06-14T02:51:00.255Z,10.4
2017-06-14T02:52:07.738Z,10.5
2017-06-14T02:53:15.221Z,10.5
2017-06-14T02:54:22.373Z,10.5
2017-06-14T02:55:29.678Z,10.4
2017-06-14T02:56:37.160Z,10.4
2017-06-14T02:57:44.635Z,10.4
2017-06-14T02:58:51.786Z,10.4
2017-06-14T02:59:59.273Z,10.4
2017-06-14T03:01:06.924Z,10.4
2017-06-14T03:02:14.404Z,10.4
2017-06-14T03:03:21.893Z,10.4
2017-06-14T03:04:29.371Z,10.4
2017-06-14T03:05:36.857Z,10.4
2017-06-14T03:06:44.492Z,10.4
2017-06-14T03:07:51.974Z,10.4
2017-06-14T03:08:59.463Z,10.5
2017-06-14T03:10:06.951Z,10.5
2017-06-14T03:11:14.435Z,10.5
2017-06-14T03:12:21.733Z,10.5
2017-06-14T03:13:29.225Z,10.4
2017-06-14T03:14:36.371Z,10.5
2017-06-14T03:15:43.858Z,10.5
2017-06-14T03:16:51.342Z,10.5
2017-06-14T03:17:58.973Z,10.5
2017-06-14T03:19:06.123Z,10.5
2017-06-14T03:20:13.604Z,10.4
2017-06-14T03:21:21.089Z,10.5
2017-06-14T03:22:28.577Z,10.5
2017-06-14T03:23:35.729Z,10.4
2017-06-14T03:24:43.210Z,10.4
2017-06-14T03:25:50.700Z,10.4
2017-06-14T03:26:58.187Z,10.4
2017-06-14T03:28:05.666Z,10.5
2017-06-14T03:29:13.146Z,10.4
2017-06-14T03:30:20.622Z,10.5
2017-06-14T03:31:28.110Z,10.5
2017-06-14T03:32:35.585Z,10.5
2017-06-14T03:33:43.069Z,10.5
2017-06-14T03:34:50.558Z,10.5
2017-06-14T03:35:57.712Z,10.5
2017-06-14T03:37:05.195Z,10.5
2017-06-14T03:38:12.349Z,10.6
2017-06-14T03:39:19.835Z,10.5
2017-06-14T03:40:27.472Z,10.5
2017-06-14T03:41:34.628Z,10.5
2017-06-14T03:42:42.110Z,10.5
2017-06-14T03:43:49.595Z,10.5
2017-06-14T03:44:57.073Z,10.5
2017-06-14T03:46:04.704Z,10.5
2017-06-14T03:47:12.200Z,10.6
2017-06-14T03:48:19.679Z,10.6
2017-06-14T03:49:26.829Z,10.6
2017-06-14T03:50:34.312Z,10.6
2017-06-14T03:51:41.946Z,10.6
2017-06-14T03:52:49.425Z,10.6
2017-06-14T03:53:56.919Z,10.6
2017-06-14T03:55:04.433Z,10.6
2017-06-14T03:56:11.918Z,10.5
2017-06-14T03:57:19.561Z,10.6
2017-06-14T03:58:27.079Z,10.6
2017-06-14T03:59:34.561Z,10.6
2017-06-14T04:00:42.051Z,10.6
2017-06-14T04:01:49.548Z,10.6
2017-06-14T04:02:57.181Z,10.6
2017-06-14T04:04:04.663Z,10.6
2017-06-14T04:05:12.143Z,10.6
2017-06-14T04:06:19.653Z,10.6
2017-06-14T04:07:27.131Z,10.6
2017-06-14T04:08:34.767Z,10.6
2017-06-14T04:09:42.272Z,10.6
2017-06-14T04:10:49.761Z,10.6
2017-06-14T04:11:57.246Z,10.6
2017-06-14T04:13:04.726Z,10.6
2017-06-14T04:14:12.358Z,10.6
2017-06-14T04:15:19.503Z,10.7
2017-06-14T04:16:26.986Z,10.7
2017-06-14T04:17:34.468Z,10.7
2017-06-14T04:18:41.952Z,10.7
2017-06-14T04:19:49.588Z,10.8
2017-06-14T04:20:57.068Z,10.8
2017-06-14T04:22:04.552Z,10.8
2017-06-14T04:23:12.034Z,10.9
2017-06-14T04:24:19.513Z,10.9
2017-06-14T04:25:26.999Z,10.9
2017-06-14T04:26:34.476Z,10.9
2017-06-14T04:27:41.965Z,10.8
2017-06-14T04:28:49.446Z,10.9
2017-06-14T04:29:56.929Z,10.9
2017-06-14T04:31:04.417Z,10.9
2017-06-14T04:32:11.899Z,10.9
2017-06-14T04:33:19.380Z,10.9
2017-06-14T04:34:26.864Z,11
2017-06-14T04:35:34.347Z,11
2017-06-14T04:36:41.833Z,11.1
2017-06-14T04:37:49.561Z,11.1
2017-06-14T04:38:57.042Z,11.1
2017-06-14T04:40:04.523Z,11.1
2017-06-14T04:41:12.003Z,11.1
2017-06-14T04:42:19.114Z,11.1
2017-06-14T04:43:26.593Z,11.2
2017-06-14T04:44:34.079Z,11.2
2017-06-14T04:45:41.561Z,11.3
2017-06-14T04:46:49.042Z,11.3
2017-06-14T04:47:56.196Z,11.4
2017-06-14T04:49:03.677Z,11.4
2017-06-14T04:50:11.155Z,11.5
2017-06-14T04:51:18.634Z,11.5
2017-06-14T04:52:25.783Z,11.6
2017-06-14T04:53:33.262Z,11.6
2017-06-14T04:54:40.755Z,11.7
2017-06-14T04:55:48.255Z,11.7
2017-06-14T04:56:55.740Z,11.8
2017-06-14T04:58:03.243Z,11.8
2017-06-14T04:59:10.726Z,11.8
2017-06-14T05:00:18.210Z,11.9
2017-06-14T05:01:25.694Z,11.9
2017-06-14T05:02:32.853Z,12
2017-06-14T05:03:40.341Z,12
2017-06-14T05:04:47.497Z,12
2017-06-14T05:05:54.995Z,12.1
2017-06-14T05:07:02.479Z,12.1
2017-06-14T05:08:09.964Z,12.2
2017-06-14T05:09:17.456Z,12.2
2017-06-14T05:10:24.610Z,12.3
2017-06-14T05:11:32.092Z,12.4
2017-06-14T05:12:39.575Z,12.4
2017-06-14T05:13:47.064Z,12.5
2017-06-14T05:14:54.552Z,12.5
2017-06-14T05:16:02.050Z,12.6
2017-06-14T05:17:09.523Z,12.7
2017-06-14T05:18:17.011Z,12.8
2017-06-14T05:19:24.505Z,12.9
2017-06-14T05:20:31.984Z,12.9
2017-06-14T05:21:39.469Z,13.1
2017-06-14T05:22:46.955Z,13.2
2017-06-14T05:23:54.449Z,13.3
2017-06-14T05:25:01.931Z,13.4
2017-06-14T05:26:09.418Z,13.5
2017-06-14T05:27:16.920Z,13.6
2017-06-14T05:28:24.398Z,13.7
2017-06-14T05:29:31.558Z,13.8
2017-06-14T05:30:39.037Z,14
2017-06-14T05:31:46.519Z,14.1
2017-06-14T05:32:53.680Z,14.2
2017-06-14T05:34:01.159Z,14.4
2017-06-14T05:35:08.643Z,14.6
2017-06-14T05:36:16.126Z,14.7
2017-06-14T05:37:23.917Z,14.9
2017-06-14T05:38:31.401Z,15.1
2017-06-14T05:39:38.884Z,15.3
2017-06-14T05:40:46.368Z,15.4
2017-06-14T05:41:53.851Z,15.5
2017-06-14T05:43:01.387Z,15.4
2017-06-14T05:44:08.869Z,15.5
2017-06-14T05:45:16.352Z,15.7
2017-06-14T05:46:23.842Z,15.8
2017-06-14T05:47:31.334Z,15.9
2017-06-14T05:48:38.492Z,15.8
2017-06-14T05:49:45.972Z,15.9
2017-06-14T05:50:53.472Z,16.1
2017-06-14T05:52:00.956Z,16.2
2017-06-14T05:53:08.120Z,16.4
2017-06-14T05:54:15.274Z,16.5
2017-06-14T05:55:22.101Z,16.6
2017-06-14T05:56:29.581Z,16.8
2017-06-14T05:57:37.065Z,16.9
2017-06-14T05:58:44.228Z,17.1
2017-06-14T05:59:51.705Z,17
2017-06-14T06:00:58.861Z,17.1
2017-06-14T06:02:06.022Z,17.2
2017-06-14T06:03:13.508Z,17.4
2017-06-14T06:04:20.997Z,17.7
2017-06-14T06:05:28.156Z,17.9
2017-06-14T06:06:35.326Z,17.8
2017-06-14T06:07:42.823Z,17.9
2017-06-14T06:08:50.309Z,18
2017-06-14T06:09:57.813Z,18.2
2017-06-14T06:11:05.294Z,18.2
2017-06-14T06:12:12.784Z,18
2017-06-14T06:13:20.268Z,17.8
2017-06-14T06:14:27.753Z,17.9
2017-06-14T06:15:34.911Z,18
2017-06-14T06:16:42.401Z,18.4
2017-06-14T06:17:49.887Z,18.4
2017-06-14T06:18:57.373Z,18.4
2017-06-14T06:20:04.854Z,18.6
2017-06-14T06:21:12.017Z,18.9
2017-06-14T06:22:19.501Z,19.2
2017-06-14T06:23:26.990Z,19.6
2017-06-14T06:24:34.512Z,19.9
2017-06-14T06:25:41.997Z,19.9
2017-06-14T06:26:49.480Z,20
2017-06-14T06:27:56.965Z,19.9
2017-06-14T06:29:04.133Z,19.8
2017-06-14T06:30:11.617Z,19.5
2017-06-14T06:31:19.106Z,19.7
2017-06-14T06:32:26.594Z,19.9
2017-06-14T06:33:33.771Z,19.7
2017-06-14T06:34:41.261Z,19.4
2017-06-14T06:35:48.748Z,19.2
2017-06-14T06:36:56.238Z,19.3
2017-06-14T06:38:03.423Z,19.4
2017-06-14T06:39:10.936Z,19.5
2017-06-14T06:40:18.420Z,19.7
2017-06-14T06:41:25.910Z,19.9
2017-06-14T06:42:33.390Z,20.2
2017-06-14T06:43:40.875Z,20.3
2017-06-14T06:44:48.370Z,20.4
2017-06-14T06:45:55.857Z,20.5
2017-06-14T06:47:03.024Z,20.5
2017-06-14T06:48:09.874Z,20.7
2017-06-14T06:49:17.373Z,20.7
2017-06-14T06:50:24.852Z,20.8
2017-06-14T06:51:32.357Z,20.8
2017-06-14T06:52:39.839Z,21
2017-06-14T06:53:47.327Z,20.9
2017-06-14T06:54:54.815Z,21.1
2017-06-14T06:56:02.305Z,21.4
2017-06-14T06:57:09.799Z,21.5
2017-06-14T06:58:17.288Z,21.6
2017-06-14T06:59:24.775Z,21.8
2017-06-14T07:00:32.186Z,21.9
2017-06-14T07:01:39.340Z,21.9
2017-06-14T07:02:46.831Z,21.4
2017-06-14T07:03:54.001Z,21.3
2017-06-14T07:05:01.159Z,21.1
2017-06-14T07:06:08.275Z,21.4
2017-06-14T07:07:15.764Z,21.5
2017-06-14T07:08:23.250Z,21.6
2017-06-14T07:09:30.406Z,21.7
2017-06-14T07:10:37.566Z,21.6
2017-06-14T07:11:44.722Z,21.6
2017-06-14T07:12:52.211Z,21.5
2017-06-14T07:13:59.704Z,21.7
2017-06-14T07:15:07.198Z,21.7
2017-06-14T07:16:14.685Z,21.9
2017-06-14T07:17:22.181Z,22.1
2017-06-14T07:18:29.676Z,22.5
2017-06-14T07:19:37.170Z,22.8
2017-06-14T07:20:44.663Z,23.1
2017-06-14T07:21:52.158Z,23.4
2017-06-14T07:22:59.324Z,23.4
2017-06-14T07:24:06.481Z,23.6
2017-06-14T07:25:13.969Z,23.8
2017-06-14T07:26:21.460Z,23.9
2017-06-14T07:27:28.622Z,23.7
2017-06-14T07:28:36.415Z,23.8
2017-06-14T07:29:43.914Z,23.5
2017-06-14T07:30:51.407Z,22.9
2017-06-14T07:31:58.901Z,22.8
2017-06-14T07:33:06.397Z,22.9
2017-06-14T07:34:13.887Z,23.1
2017-06-14T07:35:21.377Z,23.3
2017-06-14T07:36:28.866Z,23.6
2017-06-14T07:37:36.359Z,24
2017-06-14T07:38:43.516Z,24
2017-06-14T07:39:51.008Z,23.9
2017-06-14T07:40:58.505Z,23.7
2017-06-14T07:42:05.991Z,23.3
2017-06-14T07:43:13.483Z,23.2
2017-06-14T07:44:20.648Z,23.3
2017-06-14T07:45:28.136Z,23.4
2017-06-14T07:46:35.623Z,23.5
2017-06-14T07:47:43.115Z,23.5
2017-06-14T07:48:50.608Z,23.8
2017-06-14T07:49:58.245Z,24
2017-06-14T07:51:05.410Z,24.1
2017-06-14T07:52:12.905Z,24
2017-06-14T07:53:20.402Z,23.8
2017-06-14T07:54:27.889Z,24
2017-06-14T07:55:35.197Z,24.3
2017-06-14T07:56:42.367Z,24.6
2017-06-14T07:57:49.859Z,24.9
2017-06-14T07:58:57.352Z,24.8
2017-06-14T08:00:04.866Z,24.9
2017-06-14T08:01:12.514Z,25
2017-06-14T08:02:20.001Z,25
2017-06-14T08:03:27.490Z,25.2
2017-06-14T08:04:34.980Z,25.4
2017-06-14T08:05:42.470Z,25.6
2017-06-14T08:06:49.783Z,25.9
2017-06-14T08:07:57.275Z,25.9
2017-06-14T08:09:04.767Z,25.6
2017-06-14T08:10:12.260Z,25.4
2017-06-14T08:11:19.751Z,25.4
2017-06-14T08:12:27.397Z,25.4
2017-06-14T08:13:34.886Z,25.4
2017-06-14T08:14:42.377Z,25.4
2017-06-14T08:15:49.544Z,25.5
2017-06-14T08:16:57.038Z,25.4
2017-06-14T08:18:04.533Z,25.4
2017-06-14T08:19:12.036Z,25.3
2017-06-14T08:20:19.524Z,25.3
2017-06-14T08:21:27.025Z,25.2
2017-06-14T08:22:34.518Z,25.3
2017-06-14T08:23:42.011Z,25.2
2017-06-14T08:24:49.504Z,24.7
2017-06-14T08:25:56.995Z,24.7
2017-06-14T08:27:04.486Z,24.9
2017-06-14T08:28:11.978Z,25.1
2017-06-14T08:29:19.470Z,25.4
2017-06-14T08:30:26.970Z,25.6
2017-06-14T08:31:34.463Z,26
2017-06-14T08:32:41.961Z,26.4
2017-06-14T08:33:49.450Z,26.5
2017-06-14T08:34:56.941Z,26.4
2017-06-14T08:36:04.434Z,25.9
2017-06-14T08:37:11.928Z,25.5
2017-06-14T08:38:19.098Z,25.1
2017-06-14T08:39:26.586Z,25
2017-06-14T08:40:34.075Z,25.2
2017-06-14T08:41:41.566Z,25
2017-06-14T08:42:49.058Z,25.1
2017-06-14T08:43:56.563Z,25.4
2017-06-14T08:45:03.735Z,25.5
2017-06-14T08:46:11.234Z,25.6
2017-06-14T08:47:18.726Z,25.6
2017-06-14T08:48:25.910Z,25.7
2017-06-14T08:49:33.399Z,25.5
2017-06-14T08:50:40.891Z,25.4
2017-06-14T08:51:48.379Z,25.8
2017-06-14T08:52:55.876Z,26.1
2017-06-14T08:54:03.373Z,26.5
2017-06-14T08:55:10.872Z,26.8
2017-06-14T08:56:18.367Z,27
2017-06-14T08:57:25.864Z,26.6
2017-06-14T08:58:33.355Z,26.8
2017-06-14T08:59:40.848Z,27.1
2017-06-14T09:00:48.339Z,26.9
2017-06-14T09:01:55.499Z,27.1
2017-06-14T09:03:02.996Z,27.5
2017-06-14T09:04:10.494Z,27.7
2017-06-14T09:05:17.984Z,27.8
2017-06-14T09:06:25.485Z,27.5
2017-06-14T09:07:32.974Z,27.3
2017-06-14T09:08:40.467Z,26.8
2017-06-14T09:09:47.959Z,26.5
2017-06-14T09:10:55.121Z,26.5
2017-06-14T09:12:02.618Z,25.5
2017-06-14T09:13:09.783Z,25
2017-06-14T09:14:17.279Z,25.1
2017-06-14T09:15:24.788Z,25.2
2017-06-14T09:16:32.276Z,25.3
2017-06-14T09:17:39.767Z,25.3
2017-06-14T09:18:47.264Z,25.3
2017-06-14T09:19:54.792Z,25.5
2017-06-14T09:21:02.293Z,25.4
2017-06-14T09:22:09.779Z,25.6
2017-06-14T09:23:17.278Z,25.9
2017-06-14T09:24:24.773Z,26
2017-06-14T09:25:32.265Z,26.2
2017-06-14T09:26:39.759Z,26.8
2017-06-14T09:27:47.285Z,27.4
2017-06-14T09:28:54.780Z,27.7
2017-06-14T09:30:02.274Z,27.5
2017-06-14T09:31:09.451Z,27.1
2017-06-14T09:32:17.173Z,26.7
2017-06-14T09:33:24.661Z,26.5
2017-06-14T09:34:32.157Z,26.6
2017-06-14T09:35:39.662Z,26.5
2017-06-14T09:36:47.152Z,26.4
2017-06-14T09:37:54.680Z,26
2017-06-14T09:39:02.177Z,25.9
2017-06-14T09:40:09.673Z,26
2017-06-14T09:41:16.834Z,26.3
2017-06-14T09:42:24.004Z,26.1
2017-06-14T09:43:31.500Z,26.2
2017-06-14T09:44:38.999Z,26.3
2017-06-14T09:45:46.171Z,26.4
2017-06-14T09:46:53.662Z,26.3
2017-06-14T09:48:01.163Z,26.3
2017-06-14T09:49:08.652Z,26.1
2017-06-14T09:50:16.147Z,26.3
2017-06-14T09:51:23.646Z,26.3
2017-06-14T09:52:31.137Z,26.5
2017-06-14T09:53:38.298Z,27
2017-06-14T09:54:45.788Z,27.4
2017-06-14T09:55:53.309Z,27.2
2017-06-14T09:57:00.806Z,26.9
2017-06-14T09:58:08.295Z,26.8
2017-06-14T09:59:15.794Z,26.7
2017-06-14T10:00:23.283Z,26.7
2017-06-14T10:01:30.779Z,26.2
2017-06-14T10:02:38.288Z,26.1
2017-06-14T10:03:45.773Z,26.2
2017-06-14T10:04:53.265Z,26.1
2017-06-14T10:06:00.759Z,25.7
2017-06-14T10:07:08.250Z,25.6
2017-06-14T10:08:15.745Z,24.7
2017-06-14T10:09:23.243Z,24.8
2017-06-14T10:10:30.733Z,25
2017-06-14T10:11:38.230Z,25.3
2017-06-14T10:12:45.726Z,25.3
2017-06-14T10:13:53.219Z,25.2
2017-06-14T10:15:00.708Z,25.3
2017-06-14T10:16:08.202Z,25.3
2017-06-14T10:17:15.362Z,25.2
2017-06-14T10:18:22.859Z,25.4
2017-06-14T10:19:30.350Z,25.4
2017-06-14T10:20:37.842Z,25.6
2017-06-14T10:21:45.331Z,25.9
2017-06-14T10:22:52.828Z,26.1
2017-06-14T10:24:00.319Z,26
2017-06-14T10:25:07.815Z,26
2017-06-14T10:26:15.538Z,26.2
2017-06-14T10:27:23.027Z,26.2
2017-06-14T10:28:30.518Z,26.1
2017-06-14T10:29:37.706Z,26.2
2017-06-14T10:30:44.881Z,26.2
2017-06-14T10:31:52.397Z,26.2
2017-06-14T10:32:59.885Z,26
2017-06-14T10:34:07.045Z,25.9
2017-06-14T10:35:14.537Z,25.9
2017-06-14T10:36:22.027Z,25.8
2017-06-14T10:37:29.518Z,25.4
2017-06-14T10:38:37.016Z,25.2
2017-06-14T10:39:44.509Z,24.8
2017-06-14T10:40:52.002Z,24.7
2017-06-14T10:41:59.501Z,24.9
2017-06-14T10:43:07.142Z,25.1
2017-06-14T10:44:14.646Z,25.8
2017-06-14T10:45:21.810Z,26.5
2017-06-14T10:46:29.313Z,27.1
2017-06-14T10:47:36.803Z,27.6
2017-06-14T10:48:44.445Z,27.6
2017-06-14T10:49:51.953Z,27.5
2017-06-14T10:50:59.114Z,27.4
2017-06-14T10:52:06.636Z,27.5
2017-06-14T10:53:14.152Z,27.9
2017-06-14T10:54:21.799Z,28
2017-06-14T10:55:29.294Z,27.9
2017-06-14T10:56:36.782Z,28.1
2017-06-14T10:57:44.281Z,28.2
2017-06-14T10:58:51.776Z,28.1
2017-06-14T10:59:59.089Z,27.8
2017-06-14T11:01:06.589Z,27.8
2017-06-14T11:02:13.447Z,27.9
2017-06-14T11:03:20.940Z,28.2
2017-06-14T11:04:28.435Z,28.2
2017-06-14T11:05:36.083Z,27.9
2017-06-14T11:06:43.256Z,28
2017-06-14T11:07:50.756Z,28.2
2017-06-14T11:08:58.267Z,28.5
2017-06-14T11:10:05.757Z,28.6
2017-06-14T11:11:13.065Z,28.5
2017-06-14T11:12:20.236Z,28.5
2017-06-14T11:13:27.397Z,28.7
2017-06-14T11:14:34.896Z,28.9
2017-06-14T11:15:42.393Z,29.1
2017-06-14T11:16:50.035Z,28.9
2017-06-14T11:17:57.537Z,29
2017-06-14T11:19:05.035Z,29.2
2017-06-14T11:20:12.530Z,29.3
2017-06-14T11:21:20.024Z,29.4
2017-06-14T11:22:27.338Z,29.2
2017-06-14T11:23:34.838Z,29.2
2017-06-14T11:24:42.343Z,29.6
2017-06-14T11:25:49.841Z,30.1
2017-06-14T11:26:57.343Z,29.7
2017-06-14T11:28:04.997Z,28.9
2017-06-14T11:29:12.482Z,28.7
2017-06-14T11:30:20.007Z,28.7
2017-06-14T11:31:27.506Z,28.6
2017-06-14T11:32:34.667Z,28.1
2017-06-14T11:33:42.314Z,27.8
2017-06-14T11:34:49.814Z,28.3
2017-06-14T11:35:57.321Z,29
2017-06-14T11:37:04.817Z,28.4
2017-06-14T11:38:11.981Z,28.4
2017-06-14T11:39:19.635Z,28.5
2017-06-14T11:40:27.139Z,28.2
2017-06-14T11:41:34.639Z,27.8
2017-06-14T11:42:42.139Z,27.7
2017-06-14T11:43:49.629Z,28.2
2017-06-14T11:44:57.271Z,28.2
2017-06-14T11:46:04.767Z,28.2
2017-06-14T11:47:12.261Z,28.5
2017-06-14T11:48:19.758Z,29.1
2017-06-14T11:49:27.252Z,29.5
2017-06-14T11:50:34.898Z,30
2017-06-14T11:51:42.393Z,30.6
2017-06-14T11:52:49.886Z,30.8
2017-06-14T11:53:57.403Z,30.5
2017-06-14T11:55:04.901Z,29.6
2017-06-14T11:56:12.473Z,29.2
2017-06-14T11:57:19.961Z,29.3
2017-06-14T11:58:27.456Z,29.8
2017-06-14T11:59:35.181Z,29.8
2017-06-14T12:00:42.675Z,30.1
2017-06-14T12:01:50.320Z,30.2
2017-06-14T12:02:57.820Z,30.4
2017-06-14T12:04:04.991Z,30.4
2017-06-14T12:05:12.494Z,30.8
2017-06-14T12:06:19.998Z,30.4
2017-06-14T12:07:27.640Z,30.4
2017-06-14T12:08:34.807Z,30.9
2017-06-14T12:09:42.325Z,30.8
2017-06-14T12:10:49.831Z,30.9
2017-06-14T12:11:57.324Z,30.6
2017-06-14T12:13:04.970Z,30.8
2017-06-14T12:14:12.472Z,31.3
2017-06-14T12:15:19.972Z,31.3
2017-06-14T12:16:27.467Z,31.2
2017-06-14T12:17:34.301Z,31.1
2017-06-14T12:18:41.946Z,30.7
2017-06-14T12:19:49.474Z,30.4
2017-06-14T12:20:56.677Z,30.2
2017-06-14T12:22:04.173Z,30.6
2017-06-14T12:23:11.338Z,30.8
2017-06-14T12:24:18.980Z,30.6
2017-06-14T12:25:26.481Z,30.2
2017-06-14T12:26:33.979Z,30
2017-06-14T12:27:41.477Z,30
2017-06-14T12:28:48.972Z,30.2
2017-06-14T12:29:56.615Z,30.8
2017-06-14T12:31:04.115Z,30.8
2017-06-14T12:32:11.612Z,30.9
2017-06-14T12:33:19.114Z,30.9
2017-06-14T12:34:26.629Z,30.5
2017-06-14T12:35:33.950Z,30.2
2017-06-14T12:36:41.443Z,30.4
2017-06-14T12:37:48.937Z,30.7
2017-06-14T12:38:56.431Z,30.9
2017-06-14T12:40:03.926Z,31.1
2017-06-14T12:41:11.575Z,31.2
2017-06-14T12:42:18.741Z,31.3
2017-06-14T12:43:26.236Z,31.5
2017-06-14T12:44:33.731Z,31.4
2017-06-14T12:45:41.245Z,31.4
2017-06-14T12:46:48.897Z,31.4
2017-06-14T12:47:56.401Z,31.5
2017-06-14T12:49:03.896Z,31
2017-06-14T12:50:11.393Z,30.8
2017-06-14T12:51:18.891Z,30.6
2017-06-14T12:52:26.533Z,30.1
2017-06-14T12:53:34.029Z,30.1
2017-06-14T12:54:41.526Z,30.2
2017-06-14T12:55:49.027Z,30.2
2017-06-14T12:56:56.522Z,30
2017-06-14T12:58:04.167Z,29.7
2017-06-14T12:59:11.334Z,29.1
2017-06-14T13:00:18.507Z,29.1
2017-06-14T13:01:26.003Z,29
2017-06-14T13:02:33.508Z,28.9
2017-06-14T13:03:40.670Z,28.6
2017-06-14T13:04:47.854Z,28.8
2017-06-14T13:05:55.019Z,29
2017-06-14T13:07:02.508Z,29.2
2017-06-14T13:08:10.008Z,28.7
2017-06-14T13:09:17.500Z,28.2
2017-06-14T13:10:24.992Z,28.6
2017-06-14T13:11:32.491Z,28.9
2017-06-14T13:12:39.650Z,29.6
2017-06-14T13:13:47.148Z,30.3
2017-06-14T13:14:54.640Z,30.8
2017-06-14T13:16:02.147Z,31.4
2017-06-14T13:17:09.643Z,31.4
2017-06-14T13:18:17.141Z,31.8
2017-06-14T13:19:24.641Z,31.7
2017-06-14T13:20:32.144Z,31.8
2017-06-14T13:21:39.638Z,32
2017-06-14T13:22:47.137Z,32.3
2017-06-14T13:23:54.630Z,32.4
2017-06-14T13:25:02.142Z,31.9
2017-06-14T13:26:09.292Z,32
2017-06-14T13:27:16.787Z,32.3
2017-06-14T13:28:24.285Z,32.3
2017-06-14T13:29:31.809Z,32.5
2017-06-14T13:30:38.980Z,32.1
2017-06-14T13:31:46.149Z,31.8
2017-06-14T13:32:53.647Z,31.9
2017-06-14T13:34:01.149Z,32.3
2017-06-14T13:35:08.651Z,32.5
2017-06-14T13:36:15.867Z,31.7
2017-06-14T13:37:23.355Z,31.7
2017-06-14T13:38:30.857Z,31.6
2017-06-14T13:39:38.356Z,31.6
2017-06-14T13:40:45.856Z,31.7
2017-06-14T13:41:53.354Z,31.9
2017-06-14T13:43:00.850Z,31.7
2017-06-14T13:44:08.344Z,31.7
2017-06-14T13:45:15.840Z,31.6
2017-06-14T13:46:23.337Z,32.1
2017-06-14T13:47:30.503Z,32.5
2017-06-14T13:48:37.996Z,32.2
2017-06-14T13:49:45.490Z,32.1
2017-06-14T13:50:52.992Z,32.4
2017-06-14T13:52:00.500Z,32.8
2017-06-14T13:53:07.995Z,33
2017-06-14T13:54:15.499Z,32.7
2017-06-14T13:55:22.999Z,33
2017-06-14T13:56:30.498Z,33.1
2017-06-14T13:57:37.999Z,32.5
2017-06-14T13:58:45.495Z,32.2
2017-06-14T13:59:52.997Z,31.4
2017-06-14T14:01:00.161Z,31.1
2017-06-14T14:02:07.662Z,30.8
2017-06-14T14:03:15.162Z,30.7
2017-06-14T14:04:22.658Z,30.6
2017-06-14T14:05:29.829Z,30.2
2017-06-14T14:06:37.326Z,30
2017-06-14T14:07:44.823Z,29.8
2017-06-14T14:08:52.328Z,30.2
2017-06-14T14:09:59.824Z,30.2
2017-06-14T14:11:07.322Z,30.6
2017-06-14T14:12:14.822Z,30.8
2017-06-14T14:13:22.321Z,30.7
2017-06-14T14:14:29.815Z,30.5
2017-06-14T14:15:37.307Z,30.1
2017-06-14T14:16:44.805Z,30.1
2017-06-14T14:17:52.306Z,30.5
2017-06-14T14:18:59.805Z,31.1
2017-06-14T14:20:06.974Z,31.2
2017-06-14T14:21:14.471Z,31.2
2017-06-14T14:22:21.977Z,31.4
2017-06-14T14:23:29.476Z,31.7
2017-06-14T14:24:36.972Z,31.1
2017-06-14T14:25:44.470Z,30.9
2017-06-14T14:26:51.964Z,31.2
2017-06-14T14:27:59.126Z,31.5
2017-06-14T14:29:06.629Z,32.1
2017-06-14T14:30:14.155Z,32.3
2017-06-14T14:31:21.650Z,32.8
2017-06-14T14:32:29.150Z,33.2
2017-06-14T14:33:36.331Z,33.2
2017-06-14T14:35:50.956Z,33
2017-06-14T14:36:58.467Z,32.9
2017-06-14T14:38:06.269Z,33
2017-06-14T14:39:13.765Z,33
2017-06-14T14:40:21.267Z,32.9
2017-06-14T14:41:28.760Z,33.2
2017-06-14T14:42:36.256Z,33.4
2017-06-14T14:43:43.420Z,33.5
2017-06-14T14:44:50.924Z,33.5
2017-06-14T14:45:58.433Z,33.2
2017-06-14T14:47:05.271Z,32.9
2017-06-14T14:48:12.767Z,32.9
2017-06-14T14:49:20.268Z,32.9
2017-06-14T14:50:27.768Z,32.8
2017-06-14T14:51:35.265Z,32.5
2017-06-14T14:52:42.763Z,32.4
2017-06-14T14:53:50.267Z,32.5
2017-06-14T14:54:57.789Z,32.5
2017-06-14T14:56:05.299Z,32.7
2017-06-14T14:57:12.799Z,32.9
2017-06-14T14:58:20.321Z,32.4
2017-06-14T14:59:27.487Z,32
2017-06-14T15:00:34.991Z,31.3
2017-06-14T15:01:42.491Z,30.8
2017-06-14T15:02:49.988Z,30.5